Aérodrome :
LOGIN :

S'inscrire | Disclaimer

   EN    FR    IT 

 










Légende :    VFR   VFR Marginal   IFR   IFR Intensif   IFR Très Intensif
Visi : 
Plafond : 
>= 8 km
>= 3000ft
5 à 8 km
1000 à 3000 ft
1500m à 5 km
500 à 1000 ft
800 à 1500m
200 à 500 ft
< 800m
< 200 ft
Symboles :   Orages  Brouillard  Fortes neiges  Fortes précipitations  Vent > 20 kt
SIGMETs :   Divers  Orages  Givrage  Turbulence  Onde Orograph.  Cendres Volcan.






- Altitude de l'aérodrome : 3 ft
- Code IATA : LWR


EHLW - Leuuwarden Air Base

DERNIER METAR :
  • 281704Z AUTO 36022KT 9999 FEW023 07/02 Q1026 BLU

METARs EXPIRÉS :
  • 281625Z AUTO 01019KT 9999 FEW021 08/03 Q1026 BLU
  • 281555Z AUTO 36019KT 340V040 9999 FEW020 08/03 Q1026 BLU
  • 281525Z AUTO 01021KT 9999 FEW018 08/03 Q1026 BLU
  • 281514Z AUTO 36019KT 9999 FEW017 09/04 Q1026 BLU
  • 281455Z AUTO 36021KT 9999 FEW017 SCT020 09/04 Q1026 WHT
  • 281425Z AUTO 01019KT 340V040 9999 FEW017 09/04 Q1026 BLU

TAF TAF EHLW
Valide du 28 à 14h jusqu'au 29 à 02h UTC


281338Z 2814/2902 36017G30KT 9999 SCT022 SCT040
PROB30
TEMPO 2819/2902 7000 -SHRA FEW020CB SCT025



MET'MAP, la Météo Aéronautique d'un coup d'oeil ! - Copyright ORBIFLY Décembre 2007 - Disclaimer

ORBIFLY MET'MAP TEAM :

Programmation & Développement : Alexandra Zaïnal
Sur une idée originale de : Baudouin d'Aumeries
Assistance à la programmation : Marc-Olivier Méhu
Soutien technique & logistique : Manuel Goepfert

Contact : metmap@orbifly.com




SOURCES & CREDITS :

   NOAA